createdAt,value
2019-02-27T00:15:52.772Z,4.39
2019-02-27T00:30:50.568Z,4.29
2019-02-27T00:45:52.569Z,4.23
2019-02-27T01:00:51.488Z,4.11
2019-02-27T01:15:50.892Z,4.00
2019-02-27T01:30:50.693Z,3.95
2019-02-27T01:45:51.860Z,3.98
2019-02-27T02:00:50.623Z,4.03
2019-02-27T03:01:00.429Z,4.39
2019-02-27T04:15:53.827Z,4.89
2019-02-27T04:30:51.974Z,4.97
2019-02-27T04:45:54.506Z,5.02
2019-02-27T05:00:51.590Z,5.01
2019-02-27T05:15:53.331Z,4.90
2019-02-27T05:30:51.236Z,4.99
2019-02-27T05:45:51.188Z,5.01
2019-02-27T06:00:50.079Z,4.93
2019-02-27T06:15:56.445Z,4.87
2019-02-27T06:30:50.501Z,4.82
2019-02-27T06:45:51.335Z,4.81
2019-02-27T07:00:51.269Z,4.83
2019-02-27T07:15:50.711Z,4.94
2019-02-27T07:30:50.540Z,5.06
2019-02-27T07:45:50.459Z,5.24
2019-02-27T08:00:50.545Z,5.40
2019-02-27T08:15:50.788Z,5.70
2019-02-27T08:30:50.844Z,5.88
2019-02-27T08:45:50.668Z,6.04
2019-02-27T09:00:51.864Z,6.30
2019-02-27T09:15:53.061Z,6.48
2019-02-27T09:30:51.412Z,6.75
2019-02-27T09:45:50.885Z,7.04
2019-02-27T10:00:59.362Z,7.36
2019-02-27T10:15:51.120Z,7.64
2019-02-27T10:30:51.070Z,7.87
2019-02-27T10:45:51.062Z,7.55
2019-02-27T11:00:52.900Z,7.31
2019-02-27T11:15:51.782Z,7.19
2019-02-27T11:30:53.268Z,7.10
2019-02-27T11:45:51.155Z,7.05
2019-02-27T12:00:51.045Z,7.18
2019-02-27T12:15:50.402Z,7.16
2019-02-27T12:30:53.396Z,7.10
2019-02-27T12:45:51.400Z,7.37
2019-02-27T13:00:51.290Z,7.58
2019-02-27T13:15:51.647Z,7.28
2019-02-27T13:30:59.710Z,6.86
2019-02-27T13:45:52.730Z,5.91
2019-02-27T14:00:53.562Z,5.68
2019-02-27T14:15:50.792Z,6.32
2019-02-27T14:30:51.810Z,6.47
2019-02-27T14:45:51.615Z,6.11
2019-02-27T15:00:51.685Z,5.91
2019-02-27T15:15:51.010Z,5.66
2019-02-27T15:30:50.894Z,5.47
2019-02-27T15:45:52.886Z,5.47
2019-02-27T16:00:52.587Z,5.55
2019-02-27T16:15:51.159Z,5.56
2019-02-27T16:30:53.640Z,5.49
2019-02-27T16:45:51.087Z,5.48
2019-02-27T17:00:54.182Z,5.46
2019-02-27T17:15:53.247Z,5.34
2019-02-27T17:30:51.212Z,5.17
2019-02-27T17:45:54.515Z,5.07
2019-02-27T18:00:53.078Z,4.87
2019-02-27T18:15:53.238Z,4.84
2019-02-27T18:30:53.841Z,4.86
2019-02-27T18:45:51.627Z,4.81
2019-02-27T19:00:52.463Z,4.71
2019-02-27T19:15:52.861Z,4.75
2019-02-27T19:30:52.433Z,4.83
2019-02-27T19:45:51.631Z,4.86
2019-02-27T20:00:53.957Z,4.85
2019-02-27T20:15:51.272Z,4.93
2019-02-27T20:30:51.780Z,4.96
2019-02-27T20:45:51.662Z,5.00
2019-02-27T21:00:52.036Z,5.01
2019-02-27T21:15:50.586Z,4.97
2019-02-27T21:30:53.830Z,4.93
2019-02-27T21:45:54.335Z,4.90
2019-02-27T22:00:52.183Z,4.89
2019-02-27T22:15:55.884Z,4.87
2019-02-27T22:30:51.135Z,4.85
2019-02-27T22:45:51.071Z,4.81
2019-02-27T23:15:58.153Z,4.56
2019-02-27T23:30:53.333Z,4.40
2019-02-27T23:45:51.720Z,4.29
